Kezdőlap
METAR-TAF:

METAR-TAF

Repülőterek :

Sheldon Municipal Airport

Sheldon, Iowa, Amerikai Egyesült Államok

földrajzi szélesség: 43-13N, földrajzi hosszúság: 095-50W, magasság: 432 m

Jelenlegi meteorológiai megfigyelések

A jelentés 12 perccel ezelõtt készült, 05:55 UTC
Északnyugati szél 10 kt
Hőmérséklet -7°C
Páratartalom 100%
Légköri nyomás 1020 hPa
Látótávolság: 16.1 km
Derült ég

METAR: KSHL 180555Z AUTO 32010KT 10SM CLR M07/M07 A3011 RMK AO2

Idő: 00:07 (06:07 UTC)


TAF: hiányzik

Meteorológiai megfigyelések és előrejelzések több, mint 4000 repülőtéren (METAR és TAF jelentéseket).

A térképen piros és sárga pontok jelzik az elérhető meteorológiai állomásokat.

Mozgassa az egeret a pont fölött, hogy megjelenjen az állomás neve.

Azután kattintson az időjárási megfigyelések és előrejelzések megtekintéséhez.

A térkép megváltoztatása: kattintson a fekete keresztel jelölt zöld gombra ráközelítéshez, a vonallal jelölt zöld gombra távolításhoz, vagy a zöld nyilakra a szomszédos térképek eléréséhez.


METAR-TAF: